Архив погоды в Одесском

Метеограмма Одесское
Вторник, 23 Июля
Время местн. Темп Ветер Видим Явления Облачность нижн/средн/верх Атм. давл. Влжн Точка росы ВНГО R Сост. почвы Tg s
Напр Скр Прв ур.ст ур.м изм
12:00 +17.5° Ю,Ю-З 2 - 4 км слабая или умеренная гроза с осадками облачно 742 753 -0.2 100% +17.5° 1 км - - - -
09:00 +18.1° Ю 1 - 4 км дымка {ливневые осадки} облачно 742 753 +0.1 96% +17.4° 1 км 2 Влажная (без луж) - -
06:00 +16.2° С-В 1 - 4 км дымка облачно 742 753 0 97% +15.7° 1 км - - - -
03:00 +17.2° С,С-З 1 - 4 км дымка преимущественно облачно 742 753 -0.2 100% +17.2° 1 км - - - -
00:00 +17.4° штиль 0 - 4 км дымка {гроза, ливневые осадки} облачно 742 753 +0.1 100% +17.4° 1 км - - - -
Понедельник, 22 Июля
Время местн. Темп Ветер Видим Явления Облачность нижн/средн/верх Атм. давл. Влжн Точка росы ВНГО R Сост. почвы Tg s
Напр Скр Прв ур.ст ур.м изм
21:00 +18.6° С,С-В 2 - 4 км слабый ливневый дождь {гроза} облачно 742 753 +0.1 99% +18.4° 1 км 1 - - -
18:00 +23.1° З 5 - 10 км гроза без осадков облачно 742 753 -0.3 72% +17.8° 1 км - - - -
15:00 +22.7° З 3 - 10 км - облачно 742 753 +0.2 80% +19.1° 1 км - - - -
12:00 +20.3° Ю 2 - 10 км небо без изменений {гроза, ливневые осадки} облачно 742 753 +0.1 96% +19.6° 1 км - - - -
09:00 +20.2° Ю-В 2 - 10 км гроза облачно 742 753 +0.1 87% +18° 1 км 0 Сухая (без трещин) +19° -
06:00 +18.7° В,Ю-В 3 - 10 км гроза без осадков облачно 742 753 -0.2 96% +18° 1 км - - - -
03:00 +19.6° В 2 - 10 км зарница облачно с прояснениями 742 753 -1.2 91% +18.1° 1 км - - - -
00:00 +22.6° В,Ю-В 3 - 10 км - переменная облачность 744 754 -0.5 78% +18.5° - - - - -
Воскресенье, 21 Июля
Время местн. Темп Ветер Видим Явления Облачность нижн/средн/верх Атм. давл. Влжн Точка росы ВНГО R Сост. почвы Tg s
Напр Скр Прв ур.ст ур.м изм
21:00 +26.2° В,Ю-В 2 - 10 км - переменная облачность 744 755 -0.7 63% +18.5° - 0 - - -
18:00 +30.4° С 1 - 10 км - переменная облачность 745 755 -0.5 35% +13.1° 1 км - - - -
15:00 +29.5° С,С-В 2 - 10 км - переменная облачность 745 756 -1.1 39% +14.2° 1.5 км - - - -
12:00 +27.6° С 3 - 10 км - переменная облачность 746 757 -0.8 50% +16.1° 1 км - - - -
09:00 +24.9° З,С-З 1 - 10 км - ясно 747 758 +0.1 70% +19.1° более 2.5 км 0 Сухая (без трещин) - -
06:00 +16.3° С,С-З 1 - 4 км дымка ясно 747 758 -0.2 100% +16.3° более 2.5 км - - - -
03:00 +17.4° С,С-В 1 - 10 км - ясно 747 758 -0.6 96% +16.8° более 2.5 км - - - -
00:00 +21.1° С 2 - 10 км - ясно 748 759 -0.3 80% +17.5° более 2.5 км - - - -
Суббота, 20 Июля
Время местн. Темп Ветер Видим Явления Облачность нижн/средн/верх Атм. давл. Влжн Точка росы ВНГО R Сост. почвы Tg s
Напр Скр Прв ур.ст ур.м изм
21:00 +25° С 3 - 10 км - ясно 748 759 +0.1 63% +17.5° более 2.5 км 0 - - -
18:00 +28.2° С,С-З 4 - 10 км - переменная облачность 748 759 -0.4 49% +16.5° 1 км - - - -
15:00 +28.7° С,С-В 3 - 10 км - облачно с прояснениями 749 759 -0.4 45% +15.6° 1 км - - - -
12:00 +26° С 3 - 10 км - облачно с прояснениями 749 760 0 58% +17.1° 1 км - - - -
09:00 +21.8° С 2 - 10 км - ясно 749 760 +0.2 73% +16.7° более 2.5 км 0 Сухая (без трещин) +15° -